Time;durP1;ratioP1;P1;durP2;ratioP2;P2;SDS_P1;SDS_P2;PMS_P1;PMS_P2;Temp;Humidity;BMP_temperature;BMP_pressure;BME280_temperature;BME280_humidity;BME280_pressure;Samples;Min_cycle;Max_cycle;Signal;HPM_P1;HPM_P2
2021/06/07 00:00:29;;;;;;;8.80;7.53;;;;;;;-145.61;100.00;68426.72;4962189;28;20033;-86
2021/06/07 00:02:55;;;;;;;9.43;6.97;;;;;;;-145.61;100.00;68426.72;4961637;28;20419;-86
2021/06/07 00:05:23;;;;;;;9.13;7.25;;;;;;;-145.61;100.00;68426.72;4961741;28;20462;-87
2021/06/07 00:07:48;;;;;;;10.07;7.30;;;;;;;-145.61;100.00;68426.72;4961773;28;20035;-86
2021/06/07 00:10:16;;;;;;;9.60;6.72;;;;;;;-145.61;100.00;68426.72;4978634;28;20050;-87
2021/06/07 00:12:42;;;;;;;7.32;6.63;;;;;;;-145.61;100.00;68426.72;4961851;28;20300;-86
2021/06/07 00:15:11;;;;;;;9.07;6.43;;;;;;;-145.61;100.00;68426.72;4962414;28;20026;-87
2021/06/07 00:17:38;;;;;;;17.55;14.30;;;;;;;-145.61;100.00;68426.72;4961348;28;20121;-87
2021/06/07 00:20:10;;;;;;;33.08;25.17;;;;;;;-145.61;100.00;68426.72;4961650;28;20031;-86
2021/06/07 00:22:36;;;;;;;13.98;11.48;;;;;;;-145.61;100.00;68426.72;4961381;28;20035;-86
2021/06/07 00:25:05;;;;;;;10.80;8.50;;;;;;;-145.61;100.00;68426.72;4961516;28;20027;-87
2021/06/07 00:27:30;;;;;;;8.43;7.63;;;;;;;14.32;73.25;96469.56;4961542;28;20042;-87
2021/06/07 00:29:56;;;;;;;9.15;6.18;;;;;;;-145.61;100.00;68426.72;4961525;28;20426;-86
2021/06/07 00:32:21;;;;;;;9.25;6.25;;;;;;;-145.61;100.00;68426.72;4961334;28;20039;-86
2021/06/07 00:34:47;;;;;;;9.35;6.25;;;;;;;-145.61;100.00;68426.72;4961595;28;20030;-86
2021/06/07 00:37:12;;;;;;;7.38;5.72;;;;;;;-145.61;100.00;68426.72;4978387;28;20106;-86
2021/06/07 00:39:38;;;;;;;9.10;5.80;;;;;;;-145.61;100.00;68426.72;4961364;28;20027;-86
2021/06/07 00:42:04;;;;;;;9.20;5.95;;;;;;;-145.61;100.00;68426.72;4961291;28;20022;-86
2021/06/07 00:44:29;;;;;;;10.77;5.78;;;;;;;-145.61;100.00;68426.72;4961388;28;20063;-86
2021/06/07 00:46:55;;;;;;;7.88;6.00;;;;;;;-145.61;100.00;68426.72;4961330;28;20040;-86
2021/06/07 00:49:21;;;;;;;8.40;6.13;;;;;;;-145.61;100.00;68426.72;4961319;28;20041;-86
2021/06/07 00:51:46;;;;;;;8.90;6.20;;;;;;;-145.61;100.00;68426.72;4961227;28;20026;-86
2021/06/07 00:54:14;;;;;;;8.90;6.40;;;;;;;-145.61;100.00;68426.72;4961114;28;20022;-88
2021/06/07 00:56:40;;;;;;;8.52;5.82;;;;;;;-145.61;100.00;68426.72;4961270;28;20078;-87
2021/06/07 00:59:06;;;;;;;6.85;6.03;;;;;;;-145.61;100.00;68426.72;4961424;28;20081;-87
2021/06/07 01:01:31;;;;;;;10.45;5.75;;;;;;;-145.61;100.00;68426.72;4961334;28;20367;-87
2021/06/07 01:03:59;;;;;;;8.55;6.40;;;;;;;-145.61;100.00;68426.72;4961336;28;20027;-87
2021/06/07 01:06:25;;;;;;;7.55;6.05;;;;;;;-145.61;100.00;68426.72;4961198;28;20356;-86
2021/06/07 01:08:51;;;;;;;9.63;6.35;;;;;;;-145.61;100.00;68426.72;4978044;28;20062;-87
2021/06/07 01:14:38;;;;;;;7.45;5.75;;;;;;;-145.61;100.00;68426.72;4978475;28;20082;-87
2021/06/07 01:17:04;;;;;;;8.35;6.00;;;;;;;-145.61;100.00;68426.72;4961126;28;20030;-86
2021/06/07 01:19:30;;;;;;;8.05;5.93;;;;;;;-145.61;100.00;68426.72;4978067;28;20106;-86
2021/06/07 01:22:04;;;;;;;9.45;6.60;;;;;;;14.32;73.25;96469.56;4960919;28;20375;-86
2021/06/07 02:32:11;;;;;;;10.52;7.45;;;;;;;10.18;84.08;96488.16;5149177;27;20733;-88
2021/06/07 02:50:05;;;;;;;10.40;7.55;;;;;;;10.46;82.99;96513.38;5111552;27;20348;-87
2021/06/07 03:21:41;;;;;;;10.38;7.22;;;;;;;10.43;83.17;96510.81;5197852;27;20370;-88
2021/06/07 03:24:07;;;;;;;12.07;7.32;;;;;;;10.43;83.17;96510.81;5176012;27;20030;-88
2021/06/07 03:26:32;;;;;;;9.73;7.20;;;;;;;10.43;83.17;96510.81;5176054;27;20115;-88
2021/06/07 03:28:58;;;;;;;12.48;6.90;;;;;;;10.43;83.17;96510.81;5176136;27;20022;-87
2021/06/07 03:31:24;;;;;;;11.35;6.78;;;;;;;-145.61;100.00;68426.72;5176931;27;20019;-88
2021/06/07 03:33:49;;;;;;;11.65;6.78;;;;;;;10.43;83.17;96510.81;5176869;27;20409;-88
2021/06/07 03:36:15;;;;;;;11.23;6.72;;;;;;;-145.61;100.00;68426.72;5175793;27;20030;-89
2021/06/07 03:38:40;;;;;;;12.70;6.75;;;;;;;-145.61;100.00;68426.72;5175944;27;20018;-88
2021/06/07 03:41:08;;;;;;;11.32;6.82;;;;;;;-145.61;100.00;68426.72;5175761;27;20102;-88
2021/06/07 03:43:35;;;;;;;11.27;6.70;;;;;;;-145.61;100.00;68426.72;5175705;27;20493;-87
2021/06/07 03:46:01;;;;;;;9.25;6.90;;;;;;;10.43;83.17;96510.81;5175593;27;20023;-88
2021/06/07 03:48:27;;;;;;;11.35;6.75;;;;;;;10.43;83.17;96510.81;5175670;27;20026;-88
2021/06/07 03:50:53;;;;;;;10.63;6.93;;;;;;;-145.61;100.00;68426.72;5175443;27;20030;-88
2021/06/07 03:53:33;;;;;;;10.27;6.90;;;;;;;10.43;83.17;96510.81;5175475;27;20022;-88
2021/06/07 03:55:59;;;;;;;14.10;10.25;;;;;;;-145.61;100.00;68426.72;5175467;27;20485;-88
2021/06/07 03:58:26;;;;;;;16.40;11.38;;;;;;;-145.61;100.00;68426.72;5175485;27;20122;-88
2021/06/07 04:00:52;;;;;;;19.08;10.50;;;;;;;-145.61;100.00;68426.72;5175489;27;20029;-89
2021/06/07 04:03:17;;;;;;;10.77;8.98;;;;;;;10.43;83.17;96510.81;5171580;27;20015;-89
2021/06/07 04:05:42;;;;;;;12.05;7.88;;;;;;;-145.61;100.00;68426.72;5165109;27;20073;-88
2021/06/07 04:08:10;;;;;;;10.25;7.43;;;;;;;-145.61;100.00;68426.72;5196307;27;20049;-88
2021/06/07 04:10:36;;;;;;;9.25;7.30;;;;;;;-145.61;100.00;68426.72;5196976;27;20412;-89
2021/06/07 04:13:02;;;;;;;9.82;8.60;;;;;;;-145.61;100.00;68426.72;5196218;27;20030;-89
2021/06/07 04:15:28;;;;;;;9.98;8.20;;;;;;;-145.61;100.00;68426.72;5196197;27;20018;-89
2021/06/07 04:17:54;;;;;;;14.30;8.77;;;;;;;11.40;81.90;96539.94;5197016;27;20029;-89
2021/06/07 04:20:24;;;;;;;13.68;8.38;;;;;;;11.40;81.90;96539.94;5195920;27;20038;-89
2021/06/07 04:22:50;;;;;;;13.30;8.73;;;;;;;-145.61;100.00;68426.72;5181428;27;20045;-89
2021/06/07 04:25:18;;;;;;;12.00;8.68;;;;;;;-145.61;100.00;68426.72;5181903;27;20037;-89
2021/06/07 04:27:45;;;;;;;12.27;7.53;;;;;;;-145.61;100.00;68426.72;5181741;27;20113;-89
2021/06/07 04:30:16;;;;;;;10.80;7.90;;;;;;;-145.61;100.00;68426.72;5181096;27;20114;-90
2021/06/07 04:32:43;;;;;;;10.07;7.80;;;;;;;-145.61;100.00;68426.72;5160940;27;20038;-89
2021/06/07 04:35:11;;;;;;;12.90;7.78;;;;;;;-145.61;100.00;68426.72;5160845;27;20054;-92
2021/06/07 04:37:41;;;;;;;15.55;9.13;;;;;;;-145.61;100.00;68426.72;5160777;27;20110;-90
2021/06/07 04:40:07;;;;;;;;;;;;;;;-145.61;100.00;68426.72;5161119;27;20030;-90
2021/06/07 04:42:32;;;;;;;33.13;23.27;;;;;;;-145.61;100.00;68426.72;5160968;27;20213;-91
2021/06/07 04:44:58;;;;;;;14.13;9.90;;;;;;;-145.61;100.00;68426.72;5162296;27;20015;-88
2021/06/07 04:47:23;;;;;;;12.68;9.85;;;;;;;-145.61;100.00;68426.72;5160496;27;20314;-90
2021/06/07 04:49:49;;;;;;;10.40;8.95;;;;;;;-145.61;100.00;68426.72;5157440;27;20023;-92
2021/06/07 04:52:14;;;;;;;13.23;8.95;;;;;;;-145.61;100.00;68426.72;5161446;27;20027;-92
2021/06/07 04:54:40;;;;;;;12.00;9.23;;;;;;;-145.61;100.00;68426.72;5160404;27;20444;-91
2021/06/07 04:57:06;;;;;;;10.90;8.75;;;;;;;-145.61;100.00;68426.72;5160347;27;20031;-91
2021/06/07 04:59:32;;;;;;;12.50;8.75;;;;;;;-145.61;100.00;68426.72;5160552;27;20026;-91
2021/06/07 05:01:57;;;;;;;10.63;9.55;;;;;;;-145.61;100.00;68426.72;5163642;27;20045;-90
2021/06/07 05:04:23;;;;;;;10.40;8.77;;;;;;;-145.61;100.00;68426.72;5155902;27;20023;-91
2021/06/07 05:06:48;;;;;;;11.38;9.18;;;;;;;-145.61;100.00;68426.72;5179954;27;20018;-91
2021/06/07 05:09:14;;;;;;;12.27;9.40;;;;;;;-145.61;100.00;68426.72;5146447;27;20055;-90
2021/06/07 05:11:41;;;;;;;12.48;9.18;;;;;;;-145.61;100.00;68426.72;5150456;27;20374;-92
2021/06/07 05:14:07;;;;;;;13.35;9.98;;;;;;;-145.61;100.00;68426.72;5156797;27;20143;-92
2021/06/07 05:16:33;;;;;;;13.15;9.55;;;;;;;-145.61;100.00;68426.72;5146139;27;20067;-91
2021/06/07 05:18:58;;;;;;;14.77;9.90;;;;;;;-145.61;100.00;68426.72;5160852;27;20394;-89
2021/06/07 05:21:24;;;;;;;27.92;15.68;;;;;;;-145.61;100.00;68426.72;5160550;27;20049;-91
2021/06/07 05:23:49;;;;;;;114.50;48.45;;;;;;;-145.61;100.00;68426.72;5158353;27;20026;-92
2021/06/07 05:26:15;;;;;;;23.80;14.15;;;;;;;-145.61;100.00;68426.72;5160826;27;20026;-90
2021/06/07 05:28:40;;;;;;;16.00;11.23;;;;;;;-145.61;100.00;68426.72;5148055;27;20303;-91
2021/06/07 05:31:06;;;;;;;17.92;10.25;;;;;;;-145.61;100.00;68426.72;5170767;27;20034;-90
2021/06/07 05:33:32;;;;;;;12.20;10.20;;;;;;;-145.61;100.00;68426.72;5142903;27;20054;-91
2021/06/07 05:35:58;;;;;;;11.35;9.50;;;;;;;-145.61;100.00;68426.72;5170933;27;20023;-91
2021/06/07 05:38:24;;;;;;;14.13;10.23;;;;;;;-145.61;100.00;68426.72;5138903;27;20030;-90
2021/06/07 05:40:53;;;;;;;13.85;9.32;;;;;;;-145.61;100.00;68426.72;5160238;27;20022;-91
2021/06/07 05:43:30;;;;;;;11.05;8.85;;;;;;;-145.61;100.00;68426.72;5151177;27;20027;-90
2021/06/07 05:45:55;;;;;;;11.90;9.07;;;;;;;-145.61;100.00;68426.72;5138655;27;20026;-90
2021/06/07 05:48:21;;;;;;;12.43;8.02;;;;;;;-145.61;100.00;68426.72;5138686;27;20034;-90
2021/06/07 05:50:47;;;;;;;9.23;7.93;;;;;;;-145.61;100.00;68426.72;5138452;27;20015;-90
2021/06/07 05:53:14;;;;;;;16.23;7.90;;;;;;;-145.61;100.00;68426.72;5138611;27;20034;-90
2021/06/07 05:55:42;;;;;;;11.02;7.57;;;;;;;-145.61;100.00;68426.72;5138361;27;20406;-90
2021/06/07 05:58:11;;;;;;;17.60;7.85;;;;;;;-145.61;100.00;68426.72;5138322;27;20066;-91
2021/06/07 06:00:43;;;;;;;12.40;7.63;;;;;;;-145.61;100.00;68426.72;5149088;27;20405;-91
2021/06/07 06:03:10;;;;;;;27.75;8.23;;;;;;;-145.61;100.00;68426.72;5159561;27;20409;-91
2021/06/07 06:05:36;;;;;;;466.35;46.88;;;;;;;-145.61;100.00;68426.72;5139620;27;20106;-91
2021/06/07 06:08:05;;;;;;;10.75;7.65;;;;;;;-145.61;100.00;68426.72;5138201;27;20035;-91
2021/06/07 06:10:30;;;;;;;48.45;10.82;;;;;;;-145.61;100.00;68426.72;5137995;27;20318;-92
2021/06/07 06:13:05;;;;;;;57.10;10.93;;;;;;;-145.61;100.00;68426.72;5138068;27;20019;-91
2021/06/07 06:15:31;;;;;;;45.83;9.85;;;;;;;-145.61;100.00;68426.72;5144821;27;20372;-90
2021/06/07 06:17:57;;;;;;;16.17;8.00;;;;;;;-145.61;100.00;68426.72;5137983;27;20360;-92
2021/06/07 06:20:29;;;;;;;9.65;6.93;;;;;;;-145.61;100.00;68426.72;5137713;27;20043;-90
2021/06/07 06:22:55;;;;;;;14.90;7.70;;;;;;;-145.61;100.00;68426.72;5139538;27;20026;-90
2021/06/07 06:25:21;;;;;;;9.07;7.45;;;;;;;-145.61;100.00;68426.72;5138863;27;20033;-89
2021/06/07 06:27:46;;;;;;;11.95;7.65;;;;;;;-145.61;100.00;68426.72;5138826;27;20026;-91
2021/06/07 06:30:16;;;;;;;8.60;7.25;;;;;;;-145.61;100.00;68426.72;5138171;27;20079;-91
2021/06/07 06:32:43;;;;;;;9.85;8.13;;;;;;;-145.61;100.00;68426.72;5137783;27;20019;-90
2021/06/07 06:35:10;;;;;;;12.52;7.97;;;;;;;-145.61;100.00;68426.72;5137554;27;20027;-91
2021/06/07 06:37:35;;;;;;;11.55;7.90;;;;;;;-145.61;100.00;68426.72;5146717;27;20026;-90
2021/06/07 06:40:01;;;;;;;9.30;7.18;;;;;;;-145.61;100.00;68426.72;5179222;27;20337;-91
2021/06/07 06:42:27;;;;;;;10.00;6.85;;;;;;;-145.61;100.00;68426.72;5160214;27;20117;-91
2021/06/07 06:44:52;;;;;;;9.60;7.60;;;;;;;-145.61;100.00;68426.72;5147181;27;20164;-90
2021/06/07 06:47:18;;;;;;;11.55;6.95;;;;;;;-145.61;100.00;68426.72;5137267;27;20019;-90
2021/06/07 06:49:43;;;;;;;9.88;6.72;;;;;;;-145.61;100.00;68426.72;5137874;27;20034;-91
2021/06/07 06:52:09;;;;;;;8.48;6.63;;;;;;;-145.61;100.00;68426.72;5149712;27;20022;-91
2021/06/07 06:54:34;;;;;;;8.05;6.57;;;;;;;-145.61;100.00;68426.72;5158308;27;20099;-90
2021/06/07 06:57:00;;;;;;;8.05;6.45;;;;;;;-145.61;100.00;68426.72;5158012;27;20030;-91
2021/06/07 06:59:25;;;;;;;9.38;6.35;;;;;;;-145.61;100.00;68426.72;5153005;27;20019;-91
2021/06/07 07:01:51;;;;;;;8.43;6.50;;;;;;;11.40;81.90;96539.94;5157847;27;20026;-91
2021/06/07 07:04:16;;;;;;;8.73;6.25;;;;;;;11.40;81.90;96539.94;5155781;27;20052;-91
2021/06/07 07:06:42;;;;;;;7.05;5.93;;;;;;;15.88;66.20;96472.19;5158045;27;20091;-90
2021/06/07 07:09:11;;;;;;;6.60;5.35;;;;;;;15.74;65.35;96435.50;5149355;27;20117;-90
2021/06/07 07:11:36;;;;;;;9.07;5.90;;;;;;;16.10;64.61;96477.78;5148543;27;20018;-90
2021/06/07 07:14:02;;;;;;;9.20;6.15;;;;;;;15.99;64.24;96453.06;5140308;27;20405;-91
2021/06/07 07:16:28;;;;;;;6.75;5.47;;;;;;;16.39;65.09;96473.88;5153469;27;20054;-91
2021/06/07 07:18:54;;;;;;;6.50;5.53;;;;;;;16.38;65.35;96447.72;5157854;27;20019;-91
2021/06/07 07:21:19;;;;;;;6.45;5.60;;;;;;;16.86;62.77;96509.19;5155503;27;20448;-90
2021/06/07 07:23:45;;;;;;;7.90;5.65;;;;;;;16.82;63.84;96481.25;5158889;27;20023;-90
2021/06/07 07:26:11;;;;;;;7.30;5.60;;;;;;;17.11;63.44;96494.50;5144543;27;20022;-91
2021/06/07 07:28:36;;;;;;;7.35;5.47;;;;;;;17.26;63.63;96486.06;5150052;27;20038;-91
2021/06/07 07:31:02;;;;;;;11.10;5.35;;;;;;;17.33;62.56;96466.31;5145185;27;20055;-90
2021/06/07 07:33:27;;;;;;;10.93;6.20;;;;;;;17.34;61.91;96456.09;5143890;27;20030;-91
2021/06/07 07:35:53;;;;;;;6.80;5.82;;;;;;;17.74;61.61;96496.03;5136871;27;20015;-91
2021/06/07 07:38:18;;;;;;;6.80;5.03;;;;;;;17.51;61.54;96452.06;5136802;28;20051;-90
2021/06/07 07:40:46;;;;;;;9.63;5.72;;;;;;;17.71;62.55;96464.03;5136727;27;20053;-91
2021/06/07 07:43:12;;;;;;;6.60;5.70;;;;;;;17.96;61.45;96467.75;5146346;27;20027;-90
2021/06/07 07:45:39;;;;;;;6.60;5.35;;;;;;;17.98;60.98;96460.50;5136925;27;20426;-90
2021/06/07 07:48:07;;;;;;;8.15;5.43;;;;;;;18.23;60.98;96488.88;5137939;27;20094;-91
2021/06/07 07:50:33;;;;;;;10.18;5.28;;;;;;;18.14;59.71;96464.44;5151852;27;20167;-91
2021/06/07 07:52:59;;;;;;;6.85;4.95;;;;;;;18.02;58.50;96438.25;5158699;27;20075;-91
2021/06/07 07:55:30;;;;;;;8.05;5.13;;;;;;;18.50;60.18;96495.53;5158613;27;20079;-90
2021/06/07 07:57:58;;;;;;;9.32;5.30;;;;;;;18.37;58.52;96456.09;5162169;27;20102;-90
2021/06/07 08:00:28;;;;;;;8.07;5.38;;;;;;;18.58;59.32;96471.72;5161129;27;20019;-90
2021/06/07 08:02:54;;;;;;;7.20;5.47;;;;;;;18.77;59.04;96479.41;5153313;27;20025;-90
2021/06/07 08:12:04;;;;;;;8.20;5.25;;;;;;;19.09;56.85;96480.44;5159006;27;20083;-90
2021/06/07 08:14:29;;;;;;;10.55;8.80;;;;;;;19.13;57.10;96460.91;5160666;27;20031;-90
2021/06/07 08:16:55;;;;;;;12.23;6.95;;;;;;;18.99;55.33;96437.25;5140458;27;20030;-90
2021/06/07 08:19:25;;;;;;;7.40;4.75;;;;;;;19.10;55.45;96437.16;5165925;27;20050;-90
2021/06/07 08:21:52;;;;;;;13.02;4.85;;;;;;;19.41;56.35;96454.44;5161693;27;20038;-90
2021/06/07 08:24:17;;;;;;;7.10;4.57;;;;;;;19.46;54.45;96461.88;5161791;27;20037;-91
2021/06/07 08:26:43;;;;;;;5.72;3.70;;;;;;;19.48;53.68;96448.34;5144590;27;20035;-91
2021/06/07 08:29:08;;;;;;;5.30;3.95;;;;;;;19.37;53.24;96433.41;5161704;27;20023;-91
2021/06/07 08:31:37;;;;;;;6.63;3.97;;;;;;;19.81;53.10;96472.81;5150860;27;20015;-90
2021/06/07 08:34:04;;;;;;;7.55;3.85;;;;;;;19.88;49.38;96471.53;5159461;27;20043;-91
2021/06/07 08:36:30;;;;;;;5.72;3.75;;;;;;;19.96;51.51;96468.94;5160624;27;20022;-91
2021/06/07 08:38:56;;;;;;;5.43;3.42;;;;;;;19.88;48.53;96435.72;5158903;27;20023;-90
2021/06/07 08:41:21;;;;;;;8.05;3.58;;;;;;;19.87;46.02;96432.22;5152124;27;20023;-90
2021/06/07 08:43:47;;;;;;;5.32;3.05;;;;;;;20.08;42.93;96439.97;5159075;27;20026;-90
2021/06/07 08:46:13;;;;;;;4.32;2.85;;;;;;;20.01;42.81;96411.00;5147994;27;20351;-90
2021/06/07 08:48:39;;;;;;;5.10;2.97;;;;;;;20.16;45.70;96424.34;5141900;27;20314;-90
2021/06/07 08:51:05;;;;;;;3.83;2.80;;;;;;;20.22;42.66;96427.78;5161367;27;20029;-90
2021/06/07 08:53:30;;;;;;;4.63;2.85;;;;;;;20.40;43.95;96468.41;5160218;27;20022;-90
2021/06/07 08:55:56;;;;;;;3.47;2.58;;;;;;;20.11;43.82;96431.41;5160444;27;20114;-90
2021/06/07 08:58:22;;;;;;;3.60;2.70;;;;;;;20.62;43.69;96461.16;5160359;27;20118;-90
2021/06/07 09:00:47;;;;;;;4.40;3.10;;;;;;;20.48;44.44;96423.72;5161933;27;20019;-90
2021/06/07 09:03:16;;;;;;;3.13;2.67;;;;;;;20.32;39.70;96373.00;5160616;27;20019;-90
2021/06/07 09:05:44;;;;;;;5.30;2.90;;;;;;;21.06;42.70;96456.25;5160958;27;20022;-90
2021/06/07 09:08:12;;;;;;;5.25;3.25;;;;;;;20.35;42.75;96358.19;5160227;27;20446;-91
2021/06/07 09:10:49;;;;;;;4.47;3.08;;;;;;;21.23;43.07;96453.22;5160032;27;20023;-90
2021/06/07 09:13:16;;;;;;;6.32;3.22;;;;;;;21.33;42.53;96424.69;5160229;27;20029;-90
2021/06/07 09:15:49;;;;;;;8.00;2.90;;;;;;;21.49;42.48;96449.81;5151274;27;20023;-90
2021/06/07 09:18:45;;;;;;;4.75;3.15;;;;;;;21.51;43.65;96447.25;5138914;27;20807;-90
2021/06/07 09:21:25;;;;;;;4.95;3.17;;;;;;;21.50;43.79;96435.44;5156153;27;20066;-90
2021/06/07 09:23:52;;;;;;;5.25;3.35;;;;;;;21.47;42.63;96419.94;5160805;27;20117;-90
2021/06/07 09:26:27;;;;;;;7.30;3.45;;;;;;;21.87;44.38;96417.19;5144454;27;20062;-90
2021/06/07 09:28:56;;;;;;;5.68;3.92;;;;;;;21.78;42.19;96401.78;5138989;27;20023;-90
2021/06/07 09:31:30;;;;;;;5.97;2.78;;;;;;;22.19;41.11;96455.81;5139124;27;20061;-90
2021/06/07 09:33:57;;;;;;;4.78;3.17;;;;;;;22.12;40.85;96406.69;5139199;27;20118;-89
2021/06/07 09:36:29;;;;;;;5.43;3.25;;;;;;;22.55;41.24;96452.56;5140017;27;20035;-91
2021/06/07 09:39:08;;;;;;;4.90;3.63;;;;;;;22.86;41.15;96439.81;5139012;27;20043;-92
2021/06/07 09:41:43;;;;;;;4.90;3.17;;;;;;;22.99;40.79;96446.03;5143304;27;20434;-92
2021/06/07 09:44:09;;;;;;;7.65;4.03;;;;;;;23.10;41.81;96433.97;5138911;27;20414;-92
2021/06/07 09:46:34;;;;;;;5.00;3.97;;;;;;;22.93;40.93;96422.53;5138906;27;20030;-93
2021/06/07 09:49:12;;;;;;;7.80;5.40;;;;;;;22.95;44.07;96393.03;5138593;27;20049;-92
2021/06/07 09:51:39;;;;;;;9.90;3.80;;;;;;;23.07;41.00;96437.81;5138454;27;20024;-91
2021/06/07 09:54:06;;;;;;;5.63;4.00;;;;;;;23.09;43.72;96437.28;5138478;27;20033;-92
2021/06/07 09:56:47;;;;;;;5.35;3.60;;;;;;;23.27;42.10;96431.53;5150446;27;20049;-91
2021/06/07 09:59:43;;;;;;;7.72;3.58;;;;;;;23.36;41.31;96437.88;5159154;27;20118;-90
2021/06/07 10:02:17;;;;;;;7.97;3.50;;;;;;;23.50;40.03;96434.50;5142755;27;20049;-90
2021/06/07 10:04:55;;;;;;;3.83;3.10;;;;;;;23.41;38.01;96407.25;5170900;27;20366;-92
2021/06/07 10:07:22;;;;;;;7.78;3.85;;;;;;;23.70;38.79;96432.25;5181045;27;20018;-93
2021/06/07 10:10:08;;;;;;;7.40;3.65;;;;;;;23.81;39.36;96406.25;5163627;27;20046;-95
2021/06/07 10:12:35;;;;;;;6.38;3.70;;;;;;;24.17;37.73;96434.00;5164393;27;20034;-92
2021/06/07 10:15:03;;;;;;;6.00;3.63;;;;;;;24.34;38.78;96437.03;5157204;27;20029;-92
2021/06/07 10:17:28;;;;;;;4.88;3.58;;;;;;;23.99;38.08;96396.94;5148829;27;20310;-91
2021/06/07 10:22:32;;;;;;;6.28;4.72;;;;;;;23.70;41.01;96385.13;5140073;27;20410;-92
2021/06/07 10:24:59;;;;;;;9.05;4.50;;;;;;;23.63;44.66;96427.41;5145726;27;20022;-93
2021/06/07 10:27:24;;;;;;;5.45;3.42;;;;;;;23.39;40.35;96429.25;5158682;27;20022;-92
2021/06/07 10:29:50;;;;;;;4.82;2.90;;;;;;;22.81;35.63;96383.28;5158252;27;20045;-94
2021/06/07 10:32:20;;;;;;;6.38;3.92;;;;;;;22.97;40.18;96375.91;5158734;27;20074;-93
2021/06/07 10:34:59;;;;;;;8.02;3.33;;;;;;;23.39;41.41;96373.09;5159091;27;20113;-93
2021/06/07 10:37:27;;;;;;;4.70;4.23;;;;;;;24.22;43.36;96425.50;5157650;27;20034;-92
2021/06/07 10:39:53;;;;;;;4.60;2.95;;;;;;;23.89;35.88;96404.28;5159285;27;20018;-93
2021/06/07 10:42:24;;;;;;;5.95;3.15;;;;;;;24.00;40.55;96421.34;5154756;27;20019;-90
2021/06/07 10:44:53;;;;;;;3.75;2.90;;;;;;;23.48;36.96;96355.94;5160233;27;20436;-91
2021/06/07 10:47:24;;;;;;;3.03;2.70;;;;;;;24.13;35.98;96412.19;5156088;27;20375;-91
2021/06/07 10:50:04;;;;;;;4.32;2.67;;;;;;;24.43;35.33;96408.78;5148550;27;20084;-91
2021/06/07 10:52:42;;;;;;;6.78;4.13;;;;;;;24.46;33.68;96384.78;5137605;27;20023;-93
2021/06/07 10:55:10;;;;;;;3.58;3.20;;;;;;;24.71;32.99;96396.09;5137681;27;20019;-92
2021/06/07 10:57:39;;;;;;;4.55;2.92;;;;;;;25.12;32.53;96408.22;5137392;27;20045;-93
2021/06/07 11:00:10;;;;;;;3.78;2.70;;;;;;;25.24;30.49;96406.56;5154996;27;20023;-93
2021/06/07 11:02:39;;;;;;;3.10;2.50;;;;;;;25.18;32.58;96367.84;5146311;27;20030;-92
2021/06/07 11:05:09;;;;;;;6.45;4.72;;;;;;;25.74;31.21;96396.56;5149336;27;20400;-92
2021/06/07 11:07:37;;;;;;;4.05;2.83;;;;;;;25.88;29.86;96397.06;5151051;27;20054;-94
2021/06/07 11:10:21;;;;;;;3.70;2.70;;;;;;;25.72;33.99;96360.19;5140263;27;20027;-93
2021/06/07 11:12:53;;;;;;;3.47;2.60;;;;;;;25.02;32.78;96367.06;5149749;27;20022;-92
2021/06/07 11:15:28;;;;;;;2.65;2.40;;;;;;;24.46;31.68;96343.16;5158519;27;20022;-92
2021/06/07 11:18:21;;;;;;;6.72;2.50;;;;;;;24.49;35.48;96383.66;5145051;27;20091;-93
2021/06/07 11:20:52;;;;;;;4.55;2.60;;;;;;;24.11;33.78;96372.41;5139862;27;20479;-93
2021/06/07 11:23:29;;;;;;;3.53;3.15;;;;;;;23.82;37.67;96368.94;5137086;28;20114;-92
2021/06/07 11:25:58;;;;;;;5.90;3.08;;;;;;;23.77;39.50;96390.72;5155896;27;20030;-93
2021/06/07 11:28:27;;;;;;;3.67;2.83;;;;;;;23.70;38.08;96390.66;5157649;27;20067;-94
2021/06/07 11:30:53;;;;;;;6.82;3.40;;;;;;;23.53;39.86;96369.66;5157932;27;20030;-93
2021/06/07 11:34:06;;;;;;;3.40;3.08;;;;;;;23.52;37.90;96384.81;5161989;27;20030;-94
2021/06/07 11:36:50;;;;;;;5.07;3.00;;;;;;;23.39;36.65;96384.16;5141117;27;20030;-94
2021/06/07 11:39:53;;;;;;;4.05;3.00;;;;;;;23.42;35.39;96378.25;5141408;27;20114;-93
2021/06/07 11:45:42;;;;;;;4.43;2.70;;;;;;;23.34;35.57;96377.47;5156524;27;20075;-93
2021/06/07 11:48:08;;;;;;;5.45;2.72;;;;;;;23.36;34.30;96365.84;5163256;27;20121;-94
2021/06/07 11:50:40;;;;;;;5.43;2.80;;;;;;;23.96;35.14;96373.81;5163268;27;20068;-96
2021/06/07 11:53:20;;;;;;;4.68;2.85;;;;;;;23.65;34.09;96344.44;5161651;27;20056;-95
2021/06/07 11:55:48;;;;;;;3.95;2.90;;;;;;;24.41;35.00;96313.53;5161678;27;20406;-94
2021/06/07 11:58:25;;;;;;;3.92;2.58;;;;;;;25.16;33.07;96341.94;5161632;27;20088;-95
2021/06/07 12:00:50;;;;;;;3.42;2.42;;;;;;;25.67;33.35;96377.06;5161549;27;20026;-94
2021/06/07 12:03:27;;;;;;;5.72;3.00;;;;;;;25.54;32.79;96366.91;5161445;27;20402;-95
2021/06/07 12:05:53;;;;;;;5.28;2.78;;;;;;;24.84;34.62;96370.97;5160569;27;20030;-92
2021/06/07 12:08:21;;;;;;;4.60;2.70;;;;;;;24.68;34.66;96364.66;5152671;27;20022;-93
2021/06/07 12:10:57;;;;;;;4.30;2.70;;;;;;;24.47;35.36;96372.38;5159684;27;20394;-93
2021/06/07 12:13:30;;;;;;;5.35;2.83;;;;;;;24.29;36.36;96376.91;5161226;27;20030;-93
2021/06/07 12:16:01;;;;;;;8.85;3.00;;;;;;;24.28;37.30;96370.59;5161160;27;20031;-94
2021/06/07 12:18:33;;;;;;;5.63;2.78;;;;;;;24.94;35.18;96362.84;5149044;27;20023;-93
2021/06/07 12:21:17;;;;;;;4.22;2.75;;;;;;;25.55;34.56;96346.13;5139988;27;20088;-94
2021/06/07 12:23:54;;;;;;;4.78;2.85;;;;;;;25.30;35.77;96371.75;5143913;27;20019;-93
2021/06/07 12:29:33;;;;;;;5.53;2.67;;;;;;;24.62;38.42;96352.97;5159038;27;20062;-94
2021/06/07 12:32:12;;;;;;;5.35;2.85;;;;;;;24.66;35.17;96367.25;5140454;27;20108;-93
2021/06/07 12:34:56;;;;;;;3.60;2.83;;;;;;;24.99;35.04;96326.53;5140216;27;20110;-96
2021/06/07 12:37:27;;;;;;;5.70;2.50;;;;;;;25.76;34.06;96363.34;5149993;27;20034;-93
2021/06/07 12:40:07;;;;;;;6.25;3.08;;;;;;;25.91;34.60;96340.34;5139964;27;20062;-93
2021/06/07 12:42:33;;;;;;;;;;;;;;;26.36;31.10;96358.13;5145416;27;20031;-94
2021/06/07 12:45:07;;;;;;;5.60;2.63;;;;;;;26.16;31.84;96289.59;5142795;27;19907;-92
2021/06/07 12:47:33;;;;;;;4.32;2.67;;;;;;;26.50;31.87;96298.13;5141126;27;20030;-94
2021/06/07 12:50:09;;;;;;;8.88;2.85;;;;;;;27.01;31.37;96349.03;5139650;27;20023;-94
2021/06/07 12:52:37;;;;;;;5.72;2.72;;;;;;;27.01;30.42;96313.56;5141726;27;20117;-94
2021/06/07 12:55:05;;;;;;;6.47;2.58;;;;;;;27.42;30.54;96355.94;5161584;27;20031;-93
2021/06/07 12:57:31;;;;;;;7.53;2.83;;;;;;;27.33;32.00;96309.22;5158694;27;20110;-93
2021/06/07 12:59:57;;;;;;;5.20;3.22;;;;;;;27.58;28.13;96337.00;5158209;27;20050;-93
2021/06/07 13:02:35;;;;;;;4.93;2.80;;;;;;;27.57;28.39;96327.19;5146738;27;20448;-93
2021/06/07 13:05:01;;;;;;;2.63;2.35;;;;;;;28.00;29.38;96353.69;5151690;27;20321;-92
2021/06/07 13:07:27;;;;;;;4.53;2.60;;;;;;;28.19;30.20;96320.34;5147125;27;20019;-92
2021/06/07 13:09:54;;;;;;;4.53;2.42;;;;;;;28.03;26.95;96296.75;5138870;27;20054;-92
2021/06/07 13:12:32;;;;;;;2.67;2.47;;;;;;;28.55;29.26;96313.38;5154860;27;20076;-92
2021/06/07 13:14:58;;;;;;;4.05;2.55;;;;;;;28.38;26.94;96305.78;5167568;27;20030;-93
2021/06/07 13:17:24;;;;;;;3.58;2.88;;;;;;;29.06;28.77;96344.47;5147179;27;20019;-93
2021/06/07 13:19:51;;;;;;;5.63;2.75;;;;;;;28.39;28.41;96306.50;5138819;27;20015;-94
2021/06/07 13:22:18;;;;;;;3.58;2.67;;;;;;;27.45;30.05;96285.09;5139241;27;20101;-94
2021/06/07 13:24:47;;;;;;;6.13;2.95;;;;;;;27.03;31.28;96304.63;5159387;27;20026;-94
2021/06/07 13:27:17;;;;;;;4.75;2.40;;;;;;;26.73;33.43;96339.00;5144571;27;20069;-91
2021/06/07 13:29:54;;;;;;;3.42;2.67;;;;;;;26.34;32.88;96300.25;5141876;27;20031;-91
2021/06/07 13:32:31;;;;;;;2.83;2.45;;;;;;;26.08;30.99;96298.72;5145158;27;20035;-91
2021/06/07 13:35:06;;;;;;;3.88;2.70;;;;;;;27.44;30.13;96333.81;5159705;27;20413;-91
2021/06/07 13:37:36;;;;;;;3.53;2.58;;;;;;;27.80;29.35;96341.63;5145828;27;20022;-92
2021/06/07 13:40:23;;;;;;;3.72;2.67;;;;;;;28.17;28.28;96334.13;5143910;27;20019;-92